Kilmaurs, United Kingdom
Current Conditions -  °F | °C
As of 8:50 AM on Saturday 25 Oct 2014 (Local Time) from EGPK Reporting Station
Broken Clouds Broken Clouds  
Wind Chill: 52°   Ceiling: 3000
Heat Index: 52°   Visibility: 6mi
Dew Point: 46°   Wind: 22mph
Humidity: 82%   Direction: 200°SSW
Pressure: 29.71"   Gusts: NA
Location:  55.64°N, 4.53°W
Report Text: EGPK 250750Z 20019KT 9999 SCT020 BKN030 11/08 Q1006
Loading
Personal Weather Stations






























Interactive Weather Map New forecast layout! Learn more

10-Day Weather Forecast

Advertisements
Track Severe Weather on mobile